Time;durP1;ratioP1;P1;durP2;ratioP2;P2;SDS_P1;SDS_P2;PMS_P1;PMS_P2;Temp;Humidity;BMP_temperature;BMP_pressure;BME280_temperature;BME280_humidity;BME280_pressure;Samples;Min_cycle;Max_cycle;Signal;HPM_P1;HPM_P2
2021/05/15 00:00:27;;;;;;;7.23;6.53;;;14.80;99.90;;;;;;5033444;28;20410;-68
2021/05/15 00:02:53;;;;;;;6.17;5.57;;;14.80;99.90;;;;;;5032012;28;20206;-67
2021/05/15 00:05:19;;;;;;;5.77;5.27;;;14.80;99.90;;;;;;5032086;28;20788;-68
2021/05/15 00:07:44;;;;;;;9.00;7.10;;;14.70;99.90;;;;;;5031813;28;20460;-69
2021/05/15 00:10:10;;;;;;;6.47;5.83;;;14.70;99.90;;;;;;5033406;28;20174;-69
2021/05/15 00:12:36;;;;;;;6.47;5.87;;;14.60;99.90;;;;;;5033701;28;20217;-68
2021/05/15 00:15:04;;;;;;;6.53;5.43;;;14.70;99.90;;;;;;5032018;28;20869;-68
2021/05/15 00:17:29;;;;;;;6.30;5.73;;;14.40;99.90;;;;;;5033615;28;20202;-67
2021/05/15 00:19:55;;;;;;;6.00;5.50;;;14.20;99.90;;;;;;5033284;28;20797;-68
2021/05/15 00:22:20;;;;;;;6.20;5.07;;;14.20;99.90;;;;;;5032047;28;20264;-67
2021/05/15 00:24:46;;;;;;;7.50;5.80;;;14.10;99.90;;;;;;5033387;28;20536;-70
2021/05/15 00:27:12;;;;;;;5.60;5.10;;;14.10;99.90;;;;;;5033589;28;20203;-67
2021/05/15 00:29:37;;;;;;;6.27;5.67;;;14.10;99.90;;;;;;5048556;28;20182;-67
2021/05/15 00:32:04;;;;;;;6.77;6.17;;;14.00;99.90;;;;;;5033433;28;20537;-67
2021/05/15 00:34:29;;;;;;;7.43;6.63;;;14.00;99.90;;;;;;5048515;28;20257;-70
2021/05/15 00:36:55;;;;;;;7.30;6.57;;;13.90;99.90;;;;;;5048445;28;21039;-66
2021/05/15 00:39:20;;;;;;;7.27;6.50;;;13.90;99.90;;;;;;5032983;28;20170;-70
2021/05/15 00:41:46;;;;;;;6.87;6.23;;;13.80;99.90;;;;;;5032996;28;20198;-68
2021/05/15 00:44:15;;;;;;;7.20;6.60;;;13.70;99.90;;;;;;5032432;28;20640;-70
2021/05/15 00:46:44;;;;;;;8.10;7.30;;;13.60;99.90;;;;;;5035532;28;20213;-66
2021/05/15 00:49:09;;;;;;;10.70;9.57;;;13.40;99.90;;;;;;5036649;28;20816;-66
2021/05/15 00:51:35;;;;;;;9.60;8.63;;;13.20;99.90;;;;;;5036455;28;20478;-68
2021/05/15 00:54:02;;;;;;;8.50;7.70;;;13.20;99.90;;;;;;5035510;28;20179;-68
2021/05/15 00:56:29;;;;;;;10.20;8.33;;;13.20;99.90;;;;;;5035219;28;20479;-68
2021/05/15 00:58:55;;;;;;;9.50;8.10;;;13.30;99.90;;;;;;5035003;28;20419;-68
2021/05/15 01:01:21;;;;;;;8.87;7.97;;;13.30;99.90;;;;;;5051816;28;20955;-66
2021/05/15 01:03:46;;;;;;;11.20;9.13;;;13.40;99.90;;;;;;5051573;28;20424;-69
2021/05/15 01:06:12;;;;;;;9.77;8.83;;;13.40;99.90;;;;;;5036086;28;20179;-68
2021/05/15 01:08:42;;;;;;;9.03;8.13;;;13.40;99.90;;;;;;5036464;28;20226;-67
2021/05/15 01:11:08;;;;;;;11.10;9.93;;;13.30;99.90;;;;;;5035081;28;20706;-67
2021/05/15 01:13:35;;;;;;;10.10;9.10;;;13.40;99.90;;;;;;5051399;28;20519;-68
2021/05/15 01:16:01;;;;;;;10.80;9.70;;;13.40;99.90;;;;;;5036192;28;20222;-66
2021/05/15 01:18:27;;;;;;;10.47;9.43;;;13.50;99.90;;;;;;5051182;28;20443;-68
2021/05/15 01:23:43;;;;;;;10.77;9.77;;;13.50;99.90;;;;;;5036176;28;20423;-67
2021/05/15 01:26:17;;;;;;;11.30;10.23;;;13.70;99.90;;;;;;5036153;28;20447;-67
2021/05/15 01:28:44;;;;;;;10.93;9.73;;;13.70;99.90;;;;;;5035987;28;20424;-66
2021/05/15 01:31:11;;;;;;;10.77;9.67;;;13.70;99.90;;;;;;5036024;28;20434;-68
2021/05/15 01:33:37;;;;;;;10.73;9.60;;;13.60;99.90;;;;;;5035764;28;20411;-66
2021/05/15 01:36:04;;;;;;;10.23;9.10;;;13.60;99.90;;;;;;5035824;28;20475;-68
2021/05/15 01:38:30;;;;;;;11.57;9.37;;;13.40;99.90;;;;;;5035589;28;20423;-68
2021/05/15 01:41:04;;;;;;;10.60;9.57;;;13.30;99.90;;;;;;5050990;28;20928;-66
2021/05/15 01:43:29;;;;;;;11.43;9.47;;;13.40;99.90;;;;;;5035480;28;20682;-68
2021/05/15 01:45:55;;;;;;;9.67;8.47;;;13.40;99.90;;;;;;5035647;28;20416;-68
2021/05/15 01:48:21;;;;;;;10.93;9.83;;;13.30;99.90;;;;;;5035483;28;20190;-66
2021/05/15 01:51:04;;;;;;;12.23;11.03;;;13.30;99.90;;;;;;5035546;28;20170;-67
2021/05/15 01:53:33;;;;;;;12.23;10.07;;;13.30;99.90;;;;;;5035283;28;20208;-68
2021/05/15 01:56:00;;;;;;;10.53;9.37;;;13.30;99.90;;;;;;5035189;28;20778;-69
2021/05/15 01:58:26;;;;;;;10.20;9.20;;;13.40;99.90;;;;;;5033800;28;20427;-66
2021/05/15 02:00:52;;;;;;;10.20;9.10;;;13.50;99.90;;;;;;5035419;28;20408;-66
2021/05/15 02:03:18;;;;;;;13.97;11.07;;;13.50;99.90;;;;;;5035008;28;20428;-67
2021/05/15 02:05:44;;;;;;;13.20;10.50;;;13.50;99.90;;;;;;5034072;28;20817;-68
2021/05/15 02:08:10;;;;;;;11.20;10.10;;;13.50;99.90;;;;;;5034860;28;20521;-69
2021/05/15 02:10:37;;;;;;;10.70;9.60;;;13.50;99.90;;;;;;5035090;28;20193;-68
2021/05/15 02:13:03;;;;;;;9.97;8.97;;;13.50;99.90;;;;;;5034987;28;20523;-66
2021/05/15 02:15:29;;;;;;;11.13;10.00;;;13.50;99.90;;;;;;5035062;28;20462;-66
2021/05/15 02:17:57;;;;;;;12.23;9.40;;;13.40;99.90;;;;;;5034994;28;20416;-67
2021/05/15 02:20:24;;;;;;;12.20;10.90;;;13.40;99.90;;;;;;5034784;28;20396;-68
2021/05/15 02:22:49;;;;;;;11.20;9.77;;;13.40;99.90;;;;;;5034762;28;20428;-67
2021/05/15 02:25:15;;;;;;;9.77;8.77;;;13.40;99.90;;;;;;5034618;28;20407;-67
2021/05/15 02:27:41;;;;;;;9.60;8.80;;;13.30;99.90;;;;;;5033662;28;20198;-67
2021/05/15 02:30:07;;;;;;;10.30;9.30;;;13.30;99.90;;;;;;5034731;28;20166;-66
2021/05/15 02:32:32;;;;;;;9.60;8.60;;;13.20;99.90;;;;;;5035170;28;20206;-67
2021/05/15 02:34:58;;;;;;;10.80;9.43;;;13.20;99.90;;;;;;5034503;28;20399;-68
2021/05/15 02:37:23;;;;;;;11.17;10.10;;;13.20;99.90;;;;;;5035026;28;20204;-68
2021/05/15 02:39:49;;;;;;;10.83;9.73;;;13.10;99.90;;;;;;5034365;28;20170;-68
2021/05/15 02:42:15;;;;;;;9.83;8.97;;;13.10;99.90;;;;;;5049916;28;20256;-66
2021/05/15 02:44:40;;;;;;;12.30;9.60;;;13.10;99.90;;;;;;5034363;28;20163;-66
2021/05/15 02:47:06;;;;;;;10.93;9.80;;;13.10;99.90;;;;;;5033207;28;20206;-67
2021/05/15 02:49:31;;;;;;;9.63;8.80;;;13.10;99.90;;;;;;5034459;28;20229;-66
2021/05/15 02:51:57;;;;;;;10.83;9.53;;;13.00;99.90;;;;;;5033269;28;20293;-66
2021/05/15 02:54:22;;;;;;;12.50;9.17;;;12.90;99.90;;;;;;5034327;28;20178;-68
2021/05/15 02:56:48;;;;;;;9.63;8.63;;;12.80;99.90;;;;;;5034550;28;20222;-67
2021/05/15 02:59:14;;;;;;;11.70;9.43;;;12.80;99.90;;;;;;5034036;28;20178;-69
2021/05/15 03:01:39;;;;;;;9.80;8.80;;;12.70;99.90;;;;;;5034101;28;20210;-68
2021/05/15 03:04:05;;;;;;;10.17;9.23;;;12.60;99.90;;;;;;5033971;28;20175;-69
2021/05/15 03:06:30;;;;;;;10.57;9.47;;;12.60;99.90;;;;;;5034225;28;20209;-67
2021/05/15 03:08:56;;;;;;;12.00;10.70;;;12.50;99.90;;;;;;5032339;28;20233;-67
2021/05/15 03:11:21;;;;;;;11.50;10.40;;;12.70;99.90;;;;;;5032849;28;20206;-66
2021/05/15 03:13:47;;;;;;;10.20;9.30;;;12.60;99.90;;;;;;5034037;28;20163;-68
2021/05/15 03:16:13;;;;;;;10.97;9.97;;;12.60;99.90;;;;;;5033704;28;20214;-68
2021/05/15 03:18:38;;;;;;;12.03;10.93;;;12.60;99.90;;;;;;5033781;28;20202;-67
2021/05/15 03:21:04;;;;;;;12.70;11.30;;;12.60;99.90;;;;;;5034003;28;20188;-66
2021/05/15 03:23:29;;;;;;;11.43;10.30;;;12.70;99.90;;;;;;5033714;28;20190;-68
2021/05/15 03:25:55;;;;;;;14.43;11.40;;;12.70;99.90;;;;;;5033835;28;20624;-68
2021/05/15 03:28:21;;;;;;;12.13;9.97;;;12.70;99.90;;;;;;5049090;28;20593;-68
2021/05/15 03:30:46;;;;;;;11.23;10.23;;;12.60;99.90;;;;;;5032563;28;20183;-67
2021/05/15 03:33:12;;;;;;;12.43;11.23;;;12.60;99.90;;;;;;5033703;28;20295;-67
2021/05/15 03:35:37;;;;;;;11.50;10.40;;;12.60;99.90;;;;;;5033855;28;20279;-70
2021/05/15 03:38:03;;;;;;;11.17;10.00;;;12.60;99.90;;;;;;5033590;28;20206;-67
2021/05/15 03:40:29;;;;;;;12.00;10.83;;;12.60;99.90;;;;;;5032132;28;20174;-66
2021/05/15 03:42:56;;;;;;;11.37;10.10;;;12.80;99.90;;;;;;5033626;28;20191;-67
2021/05/15 03:45:22;;;;;;;12.97;10.67;;;12.60;99.90;;;;;;5033358;28;20180;-69
2021/05/15 03:47:48;;;;;;;12.50;10.90;;;12.60;99.90;;;;;;5033548;28;20420;-68
2021/05/15 03:50:14;;;;;;;12.93;11.63;;;12.70;99.90;;;;;;5033526;28;20412;-69
2021/05/15 03:52:39;;;;;;;12.10;10.90;;;12.80;99.90;;;;;;5033960;28;20202;-68
2021/05/15 03:55:06;;;;;;;11.87;10.73;;;12.80;99.90;;;;;;5033430;28;20404;-67
2021/05/15 03:57:32;;;;;;;11.20;10.00;;;12.90;99.90;;;;;;5033837;28;20213;-69
2021/05/15 03:59:57;;;;;;;14.10;12.60;;;13.00;99.90;;;;;;5032107;28;20933;-67
2021/05/15 04:02:24;;;;;;;12.87;11.10;;;13.10;99.90;;;;;;5033827;28;20205;-68
2021/05/15 04:04:51;;;;;;;12.80;11.20;;;13.20;99.90;;;;;;5033304;28;20174;-68
2021/05/15 04:07:17;;;;;;;12.37;10.73;;;13.30;99.90;;;;;;5033054;28;20467;-68
2021/05/15 04:09:42;;;;;;;12.53;11.23;;;13.40;99.90;;;;;;5033559;28;20395;-68
2021/05/15 04:12:09;;;;;;;12.37;11.17;;;13.50;99.90;;;;;;5033754;28;20440;-67
2021/05/15 04:17:29;;;;;;;13.73;12.17;;;13.40;99.90;;;;;;5014055;28;20821;-68
2021/05/15 04:19:56;;;;;;;11.83;10.63;;;13.50;99.90;;;;;;5034242;28;20522;-67
2021/05/15 04:22:22;;;;;;;12.13;10.93;;;13.40;99.90;;;;;;5037011;28;20459;-68
2021/05/15 04:24:47;;;;;;;12.83;11.53;;;13.50;99.90;;;;;;5036954;28;20404;-67
2021/05/15 04:27:13;;;;;;;12.07;10.60;;;13.60;99.90;;;;;;5035732;28;20544;-69
2021/05/15 04:29:39;;;;;;;13.10;11.03;;;13.50;99.90;;;;;;5052434;28;20269;-69
2021/05/15 04:32:05;;;;;;;12.57;11.30;;;13.50;99.90;;;;;;5037262;28;20725;-67
2021/05/15 04:34:31;;;;;;;17.10;12.37;;;13.40;99.90;;;;;;5036968;28;20411;-68
2021/05/15 04:36:59;;;;;;;13.20;11.93;;;13.50;99.90;;;;;;5036998;28;20486;-67
2021/05/15 04:39:26;;;;;;;11.73;10.53;;;13.70;99.90;;;;;;5036588;28;20182;-68
2021/05/15 04:41:52;;;;;;;14.57;12.00;;;13.70;99.90;;;;;;5037048;28;20454;-68
2021/05/15 04:44:18;;;;;;;15.97;12.10;;;13.70;99.90;;;;;;5036410;28;20403;-69
2021/05/15 04:46:44;;;;;;;12.20;11.00;;;13.80;99.90;;;;;;5036872;28;20513;-68
2021/05/15 04:49:09;;;;;;;15.20;13.70;;;13.90;99.90;;;;;;5036647;28;20253;-67
2021/05/15 04:51:35;;;;;;;16.33;13.37;;;14.10;99.90;;;;;;5035299;28;20209;-68
2021/05/15 04:54:02;;;;;;;14.00;12.60;;;14.20;99.90;;;;;;5035311;28;20174;-68
2021/05/15 04:56:29;;;;;;;15.17;13.57;;;14.20;99.90;;;;;;5036418;28;20221;-66
2021/05/15 04:58:55;;;;;;;14.30;12.80;;;14.30;99.90;;;;;;5036456;28;20403;-66
2021/05/15 05:01:20;;;;;;;16.13;14.40;;;14.30;99.90;;;;;;5036219;28;20438;-66
2021/05/15 05:03:46;;;;;;;15.70;13.57;;;14.50;99.90;;;;;;5036421;28;20628;-69
2021/05/15 05:06:12;;;;;;;16.00;13.47;;;14.60;99.90;;;;;;5034855;28;20611;-67
2021/05/15 05:08:37;;;;;;;13.97;12.47;;;14.70;99.90;;;;;;5036402;28;20309;-67
2021/05/15 05:11:03;;;;;;;15.93;12.30;;;14.70;99.90;;;;;;5036368;28;20208;-67
2021/05/15 05:13:28;;;;;;;16.80;13.00;;;14.80;99.90;;;;;;5036184;28;20209;-67
2021/05/15 05:15:55;;;;;;;16.30;14.07;;;14.90;99.90;;;;;;5036222;28;20265;-66
2021/05/15 05:18:20;;;;;;;15.77;14.00;;;15.10;99.90;;;;;;5034764;28;20198;-68
2021/05/15 05:20:46;;;;;;;14.33;12.83;;;15.20;99.90;;;;;;5036081;28;20926;-68
2021/05/15 05:23:11;;;;;;;17.13;13.77;;;15.30;99.90;;;;;;5035959;28;20273;-69
2021/05/15 05:25:37;;;;;;;16.87;14.50;;;15.40;99.90;;;;;;5035865;28;20785;-71
2021/05/15 05:28:03;;;;;;;16.57;13.73;;;15.60;99.90;;;;;;5051236;28;20205;-69
2021/05/15 05:30:29;;;;;;;16.27;13.87;;;15.70;99.90;;;;;;5035334;28;20175;-69
2021/05/15 05:32:55;;;;;;;13.40;12.10;;;15.90;99.90;;;;;;5035750;28;20431;-67
2021/05/15 05:35:21;;;;;;;13.83;12.40;;;16.00;99.90;;;;;;5035607;28;20596;-67
2021/05/15 05:37:49;;;;;;;13.23;11.90;;;16.10;99.90;;;;;;5035753;28;20470;-69
2021/05/15 05:40:16;;;;;;;19.13;13.90;;;16.30;99.90;;;;;;5035559;28;20519;-69
2021/05/15 05:42:42;;;;;;;14.50;12.90;;;16.40;99.90;;;;;;5035755;28;20462;-69
2021/05/15 05:45:11;;;;;;;17.30;12.67;;;16.50;99.90;;;;;;5035457;28;20453;-68
2021/05/15 05:47:37;;;;;;;13.90;11.70;;;16.60;99.90;;;;;;5035946;28;20544;-67
2021/05/15 05:50:03;;;;;;;12.83;11.40;;;16.70;99.90;;;;;;5034432;28;20857;-69
2021/05/15 05:52:29;;;;;;;14.77;11.20;;;16.80;99.90;;;;;;5033104;28;20676;-67
2021/05/15 05:54:54;;;;;;;18.43;11.53;;;17.00;99.90;;;;;;5035141;28;20418;-69
2021/05/15 05:57:20;;;;;;;11.83;10.60;;;17.10;99.90;;;;;;5035737;28;20208;-68
2021/05/15 05:59:46;;;;;;;12.60;10.70;;;17.30;99.90;;;;;;5035237;28;20170;-67
2021/05/15 06:02:11;;;;;;;11.70;10.10;;;17.40;99.90;;;;;;5035562;28;20194;-69
2021/05/15 06:04:37;;;;;;;11.97;9.80;;;17.60;99.90;;;;;;5035281;28;20209;-70
2021/05/15 06:07:04;;;;;;;11.30;9.20;;;17.70;99.90;;;;;;5066754;28;20210;-70
2021/05/15 06:09:29;;;;;;;11.20;9.57;;;18.00;99.90;;;;;;5035491;28;20399;-70
2021/05/15 06:11:55;;;;;;;8.37;7.50;;;18.30;99.90;;;;;;5035345;28;20447;-70
2021/05/15 06:14:21;;;;;;;9.50;6.73;;;18.40;99.90;;;;;;5035067;28;20171;-70
2021/05/15 06:16:46;;;;;;;7.47;6.80;;;18.30;99.90;;;;;;5034046;28;20268;-67
2021/05/15 06:19:12;;;;;;;7.23;6.60;;;18.20;99.90;;;;;;5034581;28;20174;-69
2021/05/15 06:21:37;;;;;;;9.03;7.70;;;18.20;99.90;;;;;;5034584;28;20202;-69
2021/05/15 06:24:04;;;;;;;8.00;7.03;;;18.40;99.90;;;;;;5034459;28;20171;-68
2021/05/15 06:26:29;;;;;;;8.23;7.43;;;18.50;99.90;;;;;;5033002;28;20300;-70
2021/05/15 06:28:55;;;;;;;6.73;6.03;;;19.10;99.90;;;;;;5066357;28;20961;-69
2021/05/15 06:31:21;;;;;;;12.03;8.10;;;19.20;99.90;;;;;;5034603;28;20179;-67
2021/05/15 06:33:46;;;;;;;7.17;6.47;;;19.00;99.90;;;;;;5034704;28;20262;-68
2021/05/15 06:36:12;;;;;;;6.63;6.00;;;18.90;99.90;;;;;;5034682;28;20219;-67
2021/05/15 06:38:41;;;;;;;7.23;5.40;;;18.80;99.90;;;;;;5034604;28;20230;-68
2021/05/15 06:41:08;;;;;;;5.53;5.03;;;18.80;99.90;;;;;;5033059;28;20432;-69
2021/05/15 06:43:33;;;;;;;5.70;5.07;;;18.80;99.90;;;;;;5033614;28;20426;-69
2021/05/15 06:45:59;;;;;;;5.83;5.33;;;18.70;99.90;;;;;;5049479;28;20442;-67
2021/05/15 06:48:24;;;;;;;5.60;4.80;;;18.80;99.90;;;;;;5034271;28;20204;-69
2021/05/15 06:50:50;;;;;;;5.30;4.90;;;19.10;99.90;;;;;;5034485;28;20194;-69
2021/05/15 06:53:16;;;;;;;4.57;4.20;;;19.20;99.90;;;;;;5034202;28;20203;-70
2021/05/15 06:55:41;;;;;;;6.03;4.83;;;19.70;99.90;;;;;;5034274;28;20296;-68
2021/05/15 06:58:07;;;;;;;5.20;4.23;;;20.20;99.90;;;;;;5032868;28;20200;-67
2021/05/15 07:00:33;;;;;;;5.03;4.20;;;20.20;99.90;;;;;;5034043;28;20173;-67
2021/05/15 07:02:59;;;;;;;4.47;4.07;;;20.20;99.90;;;;;;5034132;28;20205;-69
2021/05/15 07:05:25;;;;;;;5.90;4.33;;;20.10;99.90;;;;;;5033841;28;20790;-67
2021/05/15 07:07:50;;;;;;;4.57;3.80;;;19.90;99.90;;;;;;5032769;28;20485;-68
2021/05/15 07:10:16;;;;;;;4.90;4.47;;;19.70;99.90;;;;;;5034032;28;20414;-68
2021/05/15 07:12:42;;;;;;;4.33;3.93;;;19.80;99.90;;;;;;5033928;28;20254;-70
2021/05/15 07:15:08;;;;;;;4.60;4.00;;;19.90;99.90;;;;;;5033941;28;20210;-68
2021/05/15 07:17:34;;;;;;;4.30;3.83;;;20.00;99.90;;;;;;5034262;28;20284;-69
2021/05/15 07:20:01;;;;;;;4.20;3.37;;;19.90;99.90;;;;;;5065937;28;20461;-69
2021/05/15 07:22:27;;;;;;;3.60;3.30;;;20.10;99.90;;;;;;5032501;28;20445;-69
2021/05/15 07:24:55;;;;;;;3.73;3.40;;;20.20;99.90;;;;;;5065945;28;20433;-68
2021/05/15 07:27:21;;;;;;;4.50;3.83;;;20.30;99.90;;;;;;5033907;28;20476;-67
2021/05/15 07:29:49;;;;;;;3.60;3.27;;;20.40;99.90;;;;;;5033818;28;20419;-68
2021/05/15 07:32:15;;;;;;;3.90;3.50;;;20.60;99.90;;;;;;5065779;28;20982;-70
2021/05/15 07:34:41;;;;;;;4.10;3.70;;;20.20;99.90;;;;;;5033705;28;20444;-70
2021/05/15 07:37:09;;;;;;;5.27;3.83;;;20.30;99.90;;;;;;5033924;28;20506;-69
2021/05/15 07:39:36;;;;;;;4.03;3.63;;;19.90;99.90;;;;;;5033460;28;20442;-68
2021/05/15 07:42:02;;;;;;;4.03;3.23;;;19.90;99.90;;;;;;5033725;28;20970;-70
2021/05/15 07:44:27;;;;;;;3.07;2.60;;;20.00;99.90;;;;;;5065677;28;20932;-69
2021/05/15 07:46:53;;;;;;;2.70;2.50;;;20.00;99.90;;;;;;5033735;28;20442;-67
2021/05/15 07:49:18;;;;;;;3.80;2.70;;;20.00;99.90;;;;;;5033518;28;20677;-67
2021/05/15 07:51:45;;;;;;;3.33;3.07;;;20.10;99.90;;;;;;5033598;28;20258;-69
2021/05/15 07:54:11;;;;;;;3.73;3.10;;;20.10;99.90;;;;;;5035113;28;20259;-69
2021/05/15 07:56:37;;;;;;;3.47;3.17;;;20.20;99.90;;;;;;5037775;28;20513;-68
2021/05/15 07:59:02;;;;;;;3.20;2.90;;;20.40;99.90;;;;;;5037666;28;20181;-70
2021/05/15 08:01:28;;;;;;;3.10;2.90;;;20.60;99.90;;;;;;5037508;28;20177;-68
2021/05/15 08:03:54;;;;;;;2.70;2.17;;;20.40;99.90;;;;;;5037536;28;20243;-69
2021/05/15 08:06:19;;;;;;;2.90;2.70;;;20.80;99.90;;;;;;5037519;28;20270;-68
2021/05/15 08:08:45;;;;;;;3.60;3.30;;;20.80;99.90;;;;;;5037532;28;20234;-69
2021/05/15 08:11:11;;;;;;;4.60;4.20;;;20.80;99.90;;;;;;5037433;28;20632;-68
2021/05/15 08:13:40;;;;;;;6.33;4.43;;;20.50;99.90;;;;;;5037485;28;20570;-68
2021/05/15 08:16:06;;;;;;;4.50;4.17;;;20.50;99.90;;;;;;5037208;28;20481;-68
2021/05/15 08:18:31;;;;;;;3.83;3.53;;;20.20;99.90;;;;;;5037177;28;20833;-70
2021/05/15 08:20:57;;;;;;;2.63;2.43;;;20.10;99.90;;;;;;5069161;28;20746;-69
2021/05/15 08:23:23;;;;;;;3.53;3.23;;;20.50;99.90;;;;;;5037017;28;20204;-67
2021/05/15 08:25:48;;;;;;;3.30;3.00;;;21.00;99.90;;;;;;5037102;28;20177;-69
2021/05/15 08:28:15;;;;;;;3.30;3.00;;;21.30;99.90;;;;;;5036967;28;20202;-69
2021/05/15 08:30:42;;;;;;;4.40;4.00;;;21.40;99.90;;;;;;5037110;28;20500;-68
2021/05/15 08:33:09;;;;;;;4.00;3.67;;;21.80;99.90;;;;;;5035299;28;20790;-67
2021/05/15 08:35:35;;;;;;;4.00;3.70;;;21.80;99.90;;;;;;5031651;28;20505;-67
2021/05/15 08:38:03;;;;;;;4.00;3.70;;;21.40;99.90;;;;;;5033089;28;20438;-70
2021/05/15 08:40:29;;;;;;;4.40;3.37;;;21.10;99.90;;;;;;5036489;28;20415;-68
2021/05/15 08:42:55;;;;;;;3.57;3.27;;;21.00;99.90;;;;;;5036221;28;20771;-68
2021/05/15 08:45:23;;;;;;;5.40;4.33;;;21.10;99.90;;;;;;5034607;28;20686;-67
2021/05/15 08:47:51;;;;;;;4.83;3.70;;;21.10;99.90;;;;;;5035757;28;20447;-69
2021/05/15 08:50:20;;;;;;;5.00;4.20;;;21.20;99.90;;;;;;5035241;28;20501;-67
2021/05/15 08:52:48;;;;;;;4.07;3.77;;;21.80;99.90;;;;;;5034608;28;20824;-69
2021/05/15 08:55:19;;;;;;;5.37;4.87;;;22.40;99.90;;;;;;5034844;28;20979;-70
2021/05/15 08:57:45;;;;;;;4.53;4.13;;;22.60;99.90;;;;;;5035668;28;20455;-68
2021/05/15 09:00:17;;;;;;;3.70;3.40;;;22.30;99.90;;;;;;5036058;28;20502;-68
2021/05/15 09:02:45;;;;;;;3.87;3.47;;;22.30;99.90;;;;;;5034563;28;20446;-68
2021/05/15 09:05:12;;;;;;;5.17;4.67;;;22.40;99.90;;;;;;5035334;28;20406;-69
2021/05/15 09:07:38;;;;;;;4.70;4.30;;;22.60;99.90;;;;;;5035864;28;20475;-68
2021/05/15 09:10:06;;;;;;;5.77;5.27;;;22.70;99.90;;;;;;5036219;28;20757;-70
2021/05/15 09:12:32;;;;;;;5.30;4.80;;;22.70;99.90;;;;;;5035767;28;20451;-67
2021/05/15 09:15:05;;;;;;;6.57;4.33;;;22.70;99.90;;;;;;5035896;28;20419;-70
2021/05/15 09:17:42;;;;;;;4.03;3.70;;;22.90;99.90;;;;;;5034765;28;20467;-70
2021/05/15 09:20:09;;;;;;;3.80;3.50;;;23.20;99.90;;;;;;5034260;28;20411;-70
2021/05/15 09:22:34;;;;;;;4.40;4.00;;;23.40;99.90;;;;;;5030969;28;20864;-68
2021/05/15 09:25:07;;;;;;;6.00;4.23;;;23.40;99.90;;;;;;5029402;28;20518;-67
2021/05/15 09:27:34;;;;;;;4.30;3.97;;;22.90;99.90;;;;;;5033966;28;20204;-68
2021/05/15 09:30:01;;;;;;;7.10;3.90;;;23.00;99.90;;;;;;5034924;28;20416;-71
2021/05/15 09:32:34;;;;;;;3.80;3.50;;;23.10;99.90;;;;;;5035459;28;20448;-69
2021/05/15 09:35:01;;;;;;;3.70;3.40;;;23.30;99.90;;;;;;5035735;28;20420;-68
2021/05/15 09:37:39;;;;;;;4.10;3.10;;;23.50;99.90;;;;;;5033517;28;21002;-70
2021/05/15 09:40:15;;;;;;;3.67;3.37;;;23.50;99.90;;;;;;5035203;28;20426;-68
2021/05/15 09:43:01;;;;;;;3.40;3.10;;;23.50;99.90;;;;;;5061558;28;20471;-68
2021/05/15 09:45:30;;;;;;;4.10;3.80;;;23.40;99.90;;;;;;5034717;28;20462;-68
2021/05/15 09:48:00;;;;;;;4.10;3.37;;;23.40;99.90;;;;;;5035245;28;20440;-68
2021/05/15 09:50:31;;;;;;;3.90;3.60;;;23.10;99.90;;;;;;5035513;28;20412;-68
2021/05/15 09:53:19;;;;;;;5.00;4.60;;;23.20;99.90;;;;;;5030758;28;20532;-69
2021/05/15 09:55:52;;;;;;;3.50;3.20;;;23.20;99.90;;;;;;5015657;28;20469;-68
2021/05/15 09:58:17;;;;;;;4.03;3.63;;;23.10;99.90;;;;;;5029518;28;20982;-70
2021/05/15 10:00:50;;;;;;;4.10;3.70;;;23.30;99.90;;;;;;5034075;28;20538;-68
2021/05/15 10:03:27;;;;;;;3.63;3.33;;;23.30;99.90;;;;;;5034689;28;20293;-71
2021/05/15 10:05:58;;;;;;;3.33;3.03;;;23.30;99.90;;;;;;5035370;28;20976;-68
2021/05/15 10:08:24;;;;;;;3.33;3.07;;;23.40;99.90;;;;;;5032573;28;20479;-70
2021/05/15 10:10:51;;;;;;;4.63;4.33;;;23.20;99.90;;;;;;5032932;28;21006;-69
2021/05/15 10:13:17;;;;;;;3.43;3.20;;;23.40;99.90;;;;;;5034689;28;20210;-69
2021/05/15 10:15:44;;;;;;;4.27;3.70;;;23.70;99.90;;;;;;5034945;28;20475;-70
2021/05/15 10:18:10;;;;;;;4.00;3.70;;;23.70;99.90;;;;;;5034667;28;20944;-70
2021/05/15 10:20:36;;;;;;;3.37;3.07;;;23.20;99.90;;;;;;5034964;28;20422;-69
2021/05/15 10:23:01;;;;;;;4.13;3.23;;;23.30;99.90;;;;;;5034421;28;20208;-69
2021/05/15 10:25:29;;;;;;;3.53;3.23;;;23.40;99.90;;;;;;5033620;28;20454;-70
2021/05/15 10:28:04;;;;;;;3.00;2.80;;;22.60;99.90;;;;;;5033621;28;20294;-70
2021/05/15 10:30:29;;;;;;;3.57;3.13;;;22.30;99.90;;;;;;5032900;28;20446;-68
2021/05/15 10:32:56;;;;;;;3.40;3.10;;;21.80;99.90;;;;;;5034339;28;20471;-68
2021/05/15 10:35:30;;;;;;;3.97;3.10;;;21.70;99.90;;;;;;5033493;28;20229;-68
2021/05/15 10:38:08;;;;;;;4.00;3.60;;;22.10;99.90;;;;;;5033501;28;20453;-70
2021/05/15 10:40:48;;;;;;;3.03;2.83;;;22.10;99.90;;;;;;5034301;28;20909;-69
2021/05/15 10:43:28;;;;;;;2.50;2.30;;;22.10;99.90;;;;;;5033652;28;20485;-68
2021/05/15 10:45:54;;;;;;;2.77;2.57;;;22.80;99.90;;;;;;5031689;28;20503;-68
2021/05/15 10:48:23;;;;;;;2.27;2.00;;;23.20;99.90;;;;;;5046325;28;20889;-70
2021/05/15 10:51:00;;;;;;;2.17;2.07;;;23.70;99.90;;;;;;5030915;28;20225;-68
2021/05/15 10:53:31;;;;;;;2.97;2.73;;;23.40;99.90;;;;;;5030727;28;20439;-68
2021/05/15 10:56:15;;;;;;;2.67;2.47;;;23.20;99.90;;;;;;5030220;28;20803;-68
2021/05/15 10:58:50;;;;;;;2.63;2.43;;;22.90;99.90;;;;;;5030502;28;20411;-68
2021/05/15 11:01:20;;;;;;;3.07;2.87;;;22.40;99.90;;;;;;5063636;28;20419;-68
2021/05/15 11:03:47;;;;;;;2.40;2.20;;;22.30;99.90;;;;;;5034040;28;20408;-68
2021/05/15 11:06:21;;;;;;;2.53;2.13;;;22.40;99.90;;;;;;5066103;28;20929;-69
2021/05/15 11:09:06;;;;;;;3.20;3.00;;;22.70;99.90;;;;;;5034093;28;20455;-69
2021/05/15 11:11:42;;;;;;;2.83;2.63;;;22.60;99.90;;;;;;5034134;28;20862;-69
2021/05/15 11:14:27;;;;;;;4.80;3.23;;;22.20;99.90;;;;;;5034028;28;20400;-68
2021/05/15 11:17:24;;;;;;;2.50;2.30;;;22.10;99.90;;;;;;5034224;28;20559;-71
2021/05/15 11:20:00;;;;;;;2.40;2.20;;;22.10;99.90;;;;;;5025743;28;20416;-69
2021/05/15 11:22:41;;;;;;;1.87;1.60;;;22.60;99.90;;;;;;5034348;28;20519;-69
2021/05/15 11:25:12;;;;;;;2.50;2.30;;;22.90;99.90;;;;;;5033767;28;20562;-68
2021/05/15 11:27:49;;;;;;;3.00;2.50;;;22.70;99.90;;;;;;5033870;28;20436;-68
2021/05/15 11:30:20;;;;;;;2.73;2.00;;;22.60;99.90;;;;;;5033445;28;20805;-68
2021/05/15 11:32:55;;;;;;;2.60;2.40;;;23.30;99.90;;;;;;5033778;28;20466;-69
2021/05/15 11:35:21;;;;;;;2.30;2.10;;;22.90;99.90;;;;;;5033562;28;20490;-70
2021/05/15 11:37:47;;;;;;;1.93;1.83;;;22.60;99.90;;;;;;5033723;28;20518;-68
2021/05/15 11:40:13;;;;;;;2.37;1.90;;;22.40;99.90;;;;;;5033647;28;20178;-69
2021/05/15 11:42:39;;;;;;;2.83;2.07;;;23.10;99.90;;;;;;5033702;28;20523;-68
2021/05/15 11:45:05;;;;;;;2.40;2.20;;;23.60;99.90;;;;;;5033443;28;20416;-69
2021/05/15 11:47:31;;;;;;;2.50;1.70;;;23.70;99.90;;;;;;5033636;28;20198;-69
2021/05/15 11:49:59;;;;;;;5.80;1.60;;;23.40;99.90;;;;;;5033574;28;20412;-70
2021/05/15 11:52:35;;;;;;;1.73;1.63;;;23.10;99.90;;;;;;5033710;28;20848;-70
2021/05/15 11:55:04;;;;;;;2.13;2.03;;;23.10;99.90;;;;;;5033474;28;21000;-70
2021/05/15 11:57:30;;;;;;;2.20;2.10;;;23.70;99.90;;;;;;5033973;28;20847;-69
2021/05/15 12:00:15;;;;;;;1.50;1.40;;;23.60;99.90;;;;;;5033507;28;20412;-70
2021/05/15 12:02:47;;;;;;;1.50;1.40;;;23.80;99.90;;;;;;5032223;28;20448;-69
2021/05/15 12:05:14;;;;;;;5.03;2.00;;;23.50;99.90;;;;;;5033131;28;20400;-70
2021/05/15 12:07:51;;;;;;;2.10;1.90;;;23.60;99.90;;;;;;5033131;28;20490;-70
2021/05/15 12:10:22;;;;;;;2.20;1.57;;;23.80;99.90;;;;;;5032009;28;20928;-71
2021/05/15 12:12:59;;;;;;;1.40;1.30;;;23.80;99.90;;;;;;5033292;28;20424;-71
2021/05/15 12:15:26;;;;;;;2.00;1.90;;;23.60;99.90;;;;;;5033058;28;20440;-71
2021/05/15 12:17:52;;;;;;;2.07;1.93;;;23.40;99.90;;;;;;5033202;28;20427;-70
2021/05/15 12:20:44;;;;;;;1.80;1.70;;;23.10;99.90;;;;;;5032997;28;20458;-71
2021/05/15 12:23:17;;;;;;;1.80;1.70;;;23.30;99.90;;;;;;5031804;28;20946;-68
2021/05/15 12:26:04;;;;;;;2.33;2.00;;;23.50;99.90;;;;;;5033242;28;20466;-71
2021/05/15 12:28:32;;;;;;;1.70;1.60;;;23.40;99.90;;;;;;5033037;28;20436;-71
2021/05/15 12:31:00;;;;;;;2.27;2.07;;;23.30;99.90;;;;;;5033003;28;20427;-71
2021/05/15 12:33:27;;;;;;;2.20;2.00;;;23.30;99.90;;;;;;5033092;28;20436;-70
2021/05/15 12:35:59;;;;;;;1.90;1.80;;;23.20;99.90;;;;;;5032934;28;20467;-70
2021/05/15 12:38:24;;;;;;;2.73;2.07;;;23.20;99.90;;;;;;5032913;28;20433;-68
2021/05/15 12:40:50;;;;;;;2.10;2.00;;;23.20;99.90;;;;;;5032635;28;20443;-69
2021/05/15 12:43:16;;;;;;;2.57;1.67;;;23.20;99.90;;;;;;5068604;28;20204;-71
2021/05/15 12:45:42;;;;;;;2.20;2.10;;;23.50;99.90;;;;;;5036850;28;20188;-68
2021/05/15 12:48:41;;;;;;;2.80;2.50;;;23.10;99.90;;;;;;5036504;28;20466;-70